createdAt,value
2023-02-18T00:01:38.264Z,8.43
2023-02-18T00:04:05.031Z,9.10
2023-02-18T00:06:37.163Z,8.43
2023-02-18T00:09:06.430Z,7.93
2023-02-18T00:11:37.016Z,7.78
2023-02-18T00:14:10.291Z,8.35
2023-02-18T00:16:37.434Z,8.23
2023-02-18T00:19:07.902Z,7.93
2023-02-18T00:21:38.868Z,7.57
2023-02-18T00:24:06.636Z,7.28
2023-02-18T00:26:35.517Z,7.90
2023-02-18T00:29:05.332Z,7.68
2023-02-18T00:31:35.369Z,8.27
2023-02-18T00:34:03.539Z,8.75
2023-02-18T00:36:30.887Z,8.43
2023-02-18T00:39:00.521Z,9.10
2023-02-18T00:41:28.873Z,8.35
2023-02-18T00:43:55.818Z,9.45
2023-02-18T00:46:23.875Z,8.55
2023-02-18T00:48:50.502Z,9.35
2023-02-18T00:51:17.298Z,8.65
2023-02-18T00:53:44.000Z,8.75
2023-02-18T00:56:10.831Z,9.02
2023-02-18T00:58:38.148Z,9.30
2023-02-18T01:01:07.701Z,9.07
2023-02-18T01:03:35.574Z,9.63
2023-02-18T01:06:02.328Z,9.77
2023-02-18T01:08:29.045Z,10.65
2023-02-18T01:10:57.427Z,8.57
2023-02-18T01:13:24.696Z,9.68
2023-02-18T01:15:51.985Z,10.30
2023-02-18T01:18:19.187Z,9.57
2023-02-18T01:20:46.834Z,10.50
2023-02-18T01:23:14.746Z,10.70
2023-02-18T01:25:41.445Z,11.10
2023-02-18T01:28:09.471Z,11.32
2023-02-18T01:30:36.132Z,10.52
2023-02-18T01:33:02.877Z,10.93
2023-02-18T01:35:29.613Z,10.50
2023-02-18T01:37:56.258Z,11.10
2023-02-18T01:40:25.990Z,10.52
2023-02-18T01:42:52.700Z,10.23
2023-02-18T01:45:34.732Z,10.50
2023-02-18T01:48:08.950Z,11.02
2023-02-18T01:50:39.403Z,11.10
2023-02-18T01:53:06.632Z,11.15
2023-02-18T01:55:35.530Z,11.80
2023-02-18T01:58:03.151Z,10.77
2023-02-18T02:00:31.065Z,11.00
2023-02-18T02:02:57.647Z,10.48
2023-02-18T02:05:24.398Z,9.57
2023-02-18T02:07:53.263Z,9.73
2023-02-18T02:10:20.873Z,9.05
2023-02-18T02:13:00.915Z,9.40
2023-02-18T02:15:36.386Z,9.02
2023-02-18T02:18:24.456Z,8.95
2023-02-18T02:20:59.916Z,8.90
2023-02-18T02:23:45.048Z,8.38
2023-02-18T02:26:41.757Z,8.40
2023-02-18T02:29:33.166Z,7.93
2023-02-18T02:32:18.313Z,7.32
2023-02-18T02:35:07.582Z,7.85
2023-02-18T02:37:55.424Z,7.97
2023-02-18T02:40:36.037Z,7.97
2023-02-18T02:43:35.500Z,7.45
2023-02-18T02:46:17.654Z,7.32
2023-02-18T02:49:02.469Z,7.95
2023-02-18T02:51:49.830Z,7.30
2023-02-18T02:54:19.672Z,7.05
2023-02-18T02:56:47.055Z,7.38
2023-02-18T02:59:24.184Z,7.13
2023-02-18T03:01:59.688Z,7.35
2023-02-18T03:05:07.527Z,7.20
2023-02-18T03:08:03.239Z,8.27
2023-02-18T03:10:53.644Z,6.85
2023-02-18T03:13:41.585Z,7.45
2023-02-18T03:16:28.317Z,6.90
2023-02-18T03:19:07.479Z,6.75
2023-02-18T03:21:48.008Z,6.53
2023-02-18T03:24:23.991Z,7.03
2023-02-18T03:27:04.374Z,6.65
2023-02-18T03:29:31.781Z,5.95
2023-02-18T03:32:03.110Z,5.93
2023-02-18T03:34:33.119Z,5.88
2023-02-18T03:37:01.328Z,5.88
2023-02-18T03:39:30.365Z,5.88
2023-02-18T03:41:57.201Z,6.32
2023-02-18T03:44:26.118Z,5.05
2023-02-18T03:46:53.369Z,5.47
2023-02-18T03:49:20.396Z,5.47
2023-02-18T03:51:47.413Z,6.32
2023-02-18T03:54:14.727Z,5.68
2023-02-18T03:56:42.626Z,5.85
2023-02-18T03:59:09.402Z,5.55
2023-02-18T04:01:36.197Z,5.43
2023-02-18T04:04:03.371Z,5.00
2023-02-18T04:06:30.333Z,5.30
2023-02-18T04:08:57.044Z,4.60
2023-02-18T04:11:23.760Z,4.30
2023-02-18T04:13:50.405Z,4.70
2023-02-18T04:16:17.108Z,4.38
2023-02-18T04:18:43.721Z,4.60
2023-02-18T04:21:10.360Z,4.50
2023-02-18T04:23:36.971Z,4.65
2023-02-18T04:26:03.896Z,3.95
2023-02-18T04:28:30.506Z,3.78
2023-02-18T04:30:57.178Z,4.68
2023-02-18T04:33:23.924Z,4.32
2023-02-18T04:35:50.631Z,3.42
2023-02-18T04:38:17.220Z,3.50
2023-02-18T04:40:43.906Z,3.65
2023-02-18T04:43:10.595Z,3.80
2023-02-18T04:45:37.231Z,3.20
2023-02-18T04:48:04.120Z,2.83
2023-02-18T04:50:30.945Z,2.75
2023-02-18T04:52:57.565Z,3.05
2023-02-18T04:55:24.206Z,2.90
2023-02-18T04:57:50.844Z,3.22
2023-02-18T05:00:20.336Z,2.70
2023-02-18T05:05:14.679Z,2.85
2023-02-18T05:07:42.519Z,2.60
2023-02-18T05:10:11.489Z,2.58
2023-02-18T05:12:38.188Z,2.53
2023-02-18T05:15:05.245Z,2.50
2023-02-18T05:17:32.149Z,2.20
2023-02-18T05:19:58.803Z,2.47
2023-02-18T05:22:25.708Z,2.55
2023-02-18T05:24:52.353Z,2.30
2023-02-18T05:27:19.015Z,2.40
2023-02-18T05:29:45.729Z,2.58
2023-02-18T05:32:12.370Z,2.50
2023-02-18T05:34:39.030Z,2.17
2023-02-18T05:37:05.621Z,2.55
2023-02-18T05:39:32.285Z,1.60
2023-02-18T05:41:58.897Z,1.85
2023-02-18T05:44:31.489Z,1.58
2023-02-18T05:47:11.423Z,1.40
2023-02-18T05:49:39.584Z,1.55
2023-02-18T05:52:06.848Z,1.52
2023-02-18T05:54:34.508Z,1.55
2023-02-18T05:57:01.874Z,1.48
2023-02-18T05:59:28.668Z,0.88
2023-02-18T06:01:55.407Z,1.00
2023-02-18T06:04:22.592Z,1.17
2023-02-18T06:06:49.238Z,0.90
2023-02-18T06:09:16.115Z,0.70
2023-02-18T06:11:42.808Z,0.70
2023-02-18T06:14:09.677Z,0.75
2023-02-18T06:16:36.316Z,0.70
2023-02-18T06:19:03.080Z,0.75
2023-02-18T06:21:29.770Z,0.65
2023-02-18T06:23:56.520Z,0.60
2023-02-18T06:26:23.202Z,0.70
2023-02-18T06:28:49.887Z,0.70
2023-02-18T06:31:16.616Z,0.60
2023-02-18T06:33:43.266Z,0.80
2023-02-18T06:36:12.296Z,0.60
2023-02-18T06:38:40.768Z,0.70
2023-02-18T06:41:08.084Z,0.70
2023-02-18T06:43:35.018Z,0.80
2023-02-18T06:46:02.006Z,0.63
2023-02-18T06:48:28.705Z,0.57
2023-02-18T06:50:55.557Z,0.60
2023-02-18T06:53:22.164Z,0.60
2023-02-18T06:55:48.826Z,0.60
2023-02-18T06:58:15.936Z,0.90
2023-02-18T07:00:42.802Z,0.80
2023-02-18T07:03:12.864Z,0.80
2023-02-18T07:05:39.473Z,0.70
2023-02-18T07:08:06.230Z,0.70
2023-02-18T07:10:32.917Z,0.80
2023-02-18T07:12:59.512Z,3.35
2023-02-18T07:15:28.031Z,2.38
2023-02-18T07:17:54.868Z,0.77
2023-02-18T07:20:22.505Z,0.85
2023-02-18T07:22:50.089Z,0.60
2023-02-18T07:25:17.003Z,0.70
2023-02-18T07:27:43.743Z,0.50
2023-02-18T07:30:10.764Z,0.50
2023-02-18T07:32:37.435Z,0.52
2023-02-18T07:35:29.700Z,0.50
2023-02-18T07:37:57.940Z,0.40
2023-02-18T07:40:24.656Z,0.40
2023-02-18T07:42:51.322Z,0.40
2023-02-18T07:45:18.154Z,0.52
2023-02-18T07:47:45.594Z,0.70
2023-02-18T07:50:12.666Z,0.40
2023-02-18T07:52:39.394Z,0.40
2023-02-18T07:55:06.444Z,0.40
2023-02-18T07:57:33.092Z,0.50
2023-02-18T07:59:59.772Z,0.40
2023-02-18T08:02:26.512Z,0.32
2023-02-18T08:04:53.232Z,0.45
2023-02-18T08:07:22.015Z,0.30
2023-02-18T08:09:50.629Z,0.22
2023-02-18T08:12:17.505Z,0.35
2023-02-18T08:14:44.108Z,0.30
2023-02-18T08:17:10.763Z,0.30
2023-02-18T08:19:37.373Z,0.20
2023-02-18T08:22:04.223Z,0.30
2023-02-18T08:24:30.865Z,0.50
2023-02-18T08:27:01.200Z,0.88
2023-02-18T08:29:29.102Z,0.40
2023-02-18T08:31:57.437Z,0.40
2023-02-18T08:34:24.174Z,0.40
2023-02-18T08:36:50.824Z,0.50
2023-02-18T08:39:17.436Z,0.50
2023-02-18T08:41:44.107Z,0.70
2023-02-18T08:44:10.698Z,0.30
2023-02-18T08:46:37.347Z,0.40
2023-02-18T08:49:04.840Z,0.40
2023-02-18T08:51:31.688Z,0.28
2023-02-18T08:53:58.653Z,0.40
2023-02-18T08:56:25.683Z,0.50
2023-02-18T08:58:52.383Z,0.50
2023-02-18T09:01:19.098Z,0.90
2023-02-18T09:03:45.811Z,0.80
2023-02-18T09:06:12.445Z,0.30
2023-02-18T09:08:39.126Z,0.60
2023-02-18T09:11:05.936Z,0.40
2023-02-18T09:13:33.572Z,0.60
2023-02-18T09:16:05.014Z,0.30
2023-02-18T09:18:32.845Z,0.40
2023-02-18T09:21:00.706Z,0.70
2023-02-18T09:23:29.532Z,0.60
2023-02-18T09:25:57.723Z,1.58
2023-02-18T09:28:24.589Z,0.73
2023-02-18T09:30:51.881Z,0.85
2023-02-18T09:33:18.865Z,0.60
2023-02-18T09:35:46.522Z,1.00
2023-02-18T09:38:16.520Z,0.55
2023-02-18T09:40:51.999Z,0.50
2023-02-18T09:43:39.231Z,0.57
2023-02-18T09:46:16.777Z,0.60
2023-02-18T09:48:45.622Z,0.30
2023-02-18T09:51:15.750Z,0.43
2023-02-18T09:53:47.024Z,0.50
2023-02-18T09:56:22.134Z,0.50
2023-02-18T09:58:50.558Z,0.40
2023-02-18T10:01:35.568Z,0.45
2023-02-18T10:04:10.265Z,0.50
2023-02-18T10:06:37.872Z,0.32
2023-02-18T10:09:15.289Z,0.40
2023-02-18T10:11:46.266Z,0.40
2023-02-18T10:14:15.112Z,0.45
2023-02-18T10:16:44.235Z,0.47
2023-02-18T10:19:30.173Z,0.30
2023-02-18T10:21:57.936Z,0.30
2023-02-18T10:24:32.189Z,0.40
2023-02-18T10:26:59.495Z,0.30
2023-02-18T10:29:26.781Z,0.30
2023-02-18T10:32:13.042Z,0.45
2023-02-18T10:34:53.842Z,0.60
2023-02-18T10:37:45.266Z,0.60
2023-02-18T10:40:29.945Z,0.70
2023-02-18T10:43:03.940Z,0.90
2023-02-18T10:45:55.418Z,0.80
2023-02-18T10:48:24.961Z,0.50
2023-02-18T10:50:51.635Z,0.40
2023-02-18T10:53:38.729Z,0.63
2023-02-18T10:56:07.186Z,0.60
2023-02-18T10:58:46.332Z,0.60
2023-02-18T11:01:19.859Z,0.40
2023-02-18T11:03:50.546Z,0.60
2023-02-18T11:06:31.557Z,0.68
2023-02-18T11:08:59.357Z,0.50
2023-02-18T11:11:39.375Z,0.60
2023-02-18T11:14:08.737Z,0.70
2023-02-18T11:16:41.839Z,0.50
2023-02-18T11:19:34.323Z,0.90
2023-02-18T11:22:23.220Z,0.60
2023-02-18T11:24:56.141Z,0.68
2023-02-18T11:27:44.248Z,0.90
2023-02-18T11:30:27.870Z,0.70
2023-02-18T11:33:00.423Z,0.80
2023-02-18T11:35:30.592Z,0.80
2023-02-18T11:37:58.817Z,0.68
2023-02-18T11:40:30.689Z,0.60
2023-02-18T11:43:07.524Z,0.70
2023-02-18T11:45:35.537Z,0.60
2023-02-18T11:48:08.432Z,0.50
2023-02-18T11:50:35.415Z,0.52
2023-02-18T11:53:37.585Z,0.85
2023-02-18T11:56:16.656Z,0.65
2023-02-18T11:58:45.797Z,0.52
2023-02-18T12:01:31.623Z,0.85
2023-02-18T12:04:20.082Z,0.98
2023-02-18T12:07:06.178Z,0.97
2023-02-18T12:09:38.151Z,0.60
2023-02-18T12:12:27.738Z,0.93
2023-02-18T12:14:59.647Z,0.70
2023-02-18T12:17:41.497Z,0.65
2023-02-18T12:20:45.444Z,0.82
2023-02-18T12:23:19.415Z,0.80
2023-02-18T12:26:27.547Z,0.65
2023-02-18T12:29:39.028Z,0.70
2023-02-18T12:32:12.184Z,1.30
2023-02-18T12:35:17.618Z,0.80
2023-02-18T12:38:11.686Z,0.82
2023-02-18T12:40:58.536Z,0.68
2023-02-18T12:43:54.415Z,0.80
2023-02-18T12:46:33.504Z,1.00
2023-02-18T12:49:15.005Z,0.80
2023-02-18T12:52:09.667Z,0.75
2023-02-18T12:54:54.815Z,1.10
2023-02-18T12:57:46.428Z,1.02
2023-02-18T13:00:43.360Z,1.05
2023-02-18T13:03:22.253Z,0.80
2023-02-18T13:06:00.920Z,1.00
2023-02-18T13:08:36.465Z,0.80
2023-02-18T13:11:27.671Z,0.90
2023-02-18T13:14:00.099Z,1.10
2023-02-18T13:16:28.415Z,1.20
2023-02-18T13:19:34.836Z,0.98
2023-02-18T13:22:07.246Z,0.80
2023-02-18T13:24:39.008Z,0.90
2023-02-18T13:27:20.635Z,0.90
2023-02-18T13:29:56.413Z,1.10
2023-02-18T13:32:29.241Z,1.02
2023-02-18T13:35:06.742Z,1.25
2023-02-18T13:37:38.373Z,1.05
2023-02-18T13:40:14.621Z,1.67
2023-02-18T13:42:41.177Z,1.00
2023-02-18T13:45:25.041Z,1.38
2023-02-18T13:47:53.232Z,1.38
2023-02-18T13:50:22.931Z,0.98
2023-02-18T13:52:50.467Z,1.00
2023-02-18T13:55:24.136Z,1.10
2023-02-18T13:57:55.086Z,1.10
2023-02-18T14:00:35.502Z,2.53
2023-02-18T14:03:21.337Z,1.08
2023-02-18T14:05:48.166Z,1.13
2023-02-18T14:08:30.414Z,1.00
2023-02-18T14:11:27.618Z,1.30
2023-02-18T14:14:14.091Z,1.23
2023-02-18T14:17:22.676Z,1.17
2023-02-18T14:20:01.539Z,1.10
2023-02-18T14:22:31.182Z,1.30
2023-02-18T14:25:08.693Z,1.70
2023-02-18T14:27:37.699Z,0.98
2023-02-18T14:30:28.488Z,1.20
2023-02-18T14:33:01.375Z,1.20
2023-02-18T14:35:56.800Z,1.55
2023-02-18T14:38:46.171Z,1.60
2023-02-18T14:44:06.910Z,1.60
2023-02-18T14:47:10.132Z,1.10
2023-02-18T14:49:38.817Z,1.10
2023-02-18T14:52:12.143Z,1.20
2023-02-18T14:54:40.612Z,0.85
2023-02-18T14:57:13.252Z,1.30
2023-02-18T14:59:44.452Z,1.60
2023-02-18T15:02:38.756Z,1.15
2023-02-18T15:05:13.392Z,1.20
2023-02-18T15:07:40.116Z,1.45
2023-02-18T15:10:14.217Z,1.48
2023-02-18T15:12:41.177Z,1.27
2023-02-18T15:15:12.845Z,1.10
2023-02-18T15:17:47.476Z,1.20
2023-02-18T15:20:15.581Z,1.08
2023-02-18T15:22:42.780Z,1.65
2023-02-18T15:25:13.325Z,1.50
2023-02-18T15:27:44.451Z,1.02
2023-02-18T15:30:31.447Z,1.50
2023-02-18T15:33:01.015Z,1.50
2023-02-18T15:35:31.745Z,1.02
2023-02-18T15:38:00.231Z,1.42
2023-02-18T15:40:37.150Z,1.83
2023-02-18T15:43:06.166Z,1.27
2023-02-18T15:45:37.273Z,1.20
2023-02-18T15:48:05.991Z,1.42
2023-02-18T15:50:38.439Z,1.63
2023-02-18T15:53:15.121Z,1.33
2023-02-18T15:55:46.005Z,1.40
2023-02-18T15:58:17.734Z,1.30
2023-02-18T16:00:56.684Z,1.45
2023-02-18T16:03:31.841Z,1.30
2023-02-18T16:06:31.702Z,1.75
2023-02-18T16:09:18.983Z,1.20
2023-02-18T16:11:48.694Z,0.80
2023-02-18T16:14:30.043Z,1.10
2023-02-18T16:17:24.727Z,0.90
2023-02-18T16:20:04.271Z,1.00
2023-02-18T16:22:31.632Z,1.17
2023-02-18T16:25:08.618Z,1.00
2023-02-18T16:27:37.962Z,1.00
2023-02-18T16:30:25.704Z,1.08
2023-02-18T16:32:52.543Z,0.85
2023-02-18T16:35:19.287Z,0.85
2023-02-18T16:37:47.989Z,0.70
2023-02-18T16:40:27.491Z,1.20
2023-02-18T16:42:58.152Z,1.00
2023-02-18T16:45:33.204Z,1.40
2023-02-18T16:48:00.184Z,0.80
2023-02-18T16:50:29.803Z,0.80
2023-02-18T16:52:57.032Z,1.02
2023-02-18T16:55:27.223Z,1.10
2023-02-18T16:57:54.768Z,0.98
2023-02-18T17:00:22.457Z,0.95
2023-02-18T17:02:52.001Z,1.10
2023-02-18T17:05:26.960Z,0.90
2023-02-18T17:07:54.820Z,1.00
2023-02-18T17:10:21.649Z,0.82
2023-02-18T17:12:48.762Z,1.30
2023-02-18T17:15:31.632Z,1.23
2023-02-18T17:18:00.000Z,1.02
2023-02-18T17:20:28.762Z,1.30
2023-02-18T17:22:59.782Z,1.25
2023-02-18T17:25:38.821Z,1.23
2023-02-18T17:28:06.179Z,1.48
2023-02-18T17:30:36.932Z,1.23
2023-02-18T17:33:04.619Z,0.90
2023-02-18T17:35:31.713Z,1.20
2023-02-18T17:37:58.356Z,1.55
2023-02-18T17:40:28.026Z,0.90
2023-02-18T17:42:55.976Z,1.15
2023-02-18T17:45:37.293Z,1.10
2023-02-18T17:48:04.373Z,1.20
2023-02-18T17:50:32.141Z,1.33
2023-02-18T17:52:59.203Z,1.13
2023-02-18T17:55:29.071Z,1.30
2023-02-18T17:57:56.641Z,1.23
2023-02-18T18:00:26.490Z,1.00
2023-02-18T18:02:53.794Z,1.17
2023-02-18T18:05:26.604Z,1.20
2023-02-18T18:07:53.683Z,1.08
2023-02-18T18:10:23.323Z,0.90
2023-02-18T18:12:50.170Z,1.17
2023-02-18T18:15:27.349Z,1.25
2023-02-18T18:17:54.691Z,1.10
2023-02-18T18:20:23.294Z,0.95
2023-02-18T18:22:51.812Z,1.00
2023-02-18T18:25:24.443Z,1.33
2023-02-18T18:27:53.157Z,1.30
2023-02-18T18:30:21.905Z,1.75
2023-02-18T18:32:48.796Z,1.30
2023-02-18T18:35:23.416Z,1.30
2023-02-18T18:37:50.351Z,1.20
2023-02-18T18:40:19.240Z,1.20
2023-02-18T18:42:46.024Z,1.33
2023-02-18T18:45:24.808Z,1.30
2023-02-18T18:47:52.332Z,1.00
2023-02-18T18:50:20.157Z,0.95
2023-02-18T18:52:48.527Z,1.17
2023-02-18T18:55:18.040Z,1.20
2023-02-18T18:57:47.097Z,0.77
2023-02-18T19:00:15.360Z,0.73
2023-02-18T19:02:42.120Z,1.00
2023-02-18T19:05:32.374Z,1.25
2023-02-18T19:08:00.024Z,1.20
2023-02-18T19:10:30.199Z,1.00
2023-02-18T19:13:02.936Z,1.15
2023-02-18T19:15:30.234Z,0.95
2023-02-18T19:17:57.068Z,0.90
2023-02-18T19:20:27.198Z,1.00
2023-02-18T19:22:53.879Z,0.98
2023-02-18T19:25:20.963Z,0.95
2023-02-18T19:27:48.965Z,1.00
2023-02-18T19:30:22.882Z,0.60
2023-02-18T19:32:51.412Z,0.73
2023-02-18T19:35:18.587Z,0.90
2023-02-18T19:37:45.859Z,1.00
2023-02-18T19:40:16.198Z,1.20
2023-02-18T19:42:43.129Z,1.25
2023-02-18T19:45:10.013Z,1.42
2023-02-18T19:47:37.363Z,1.60
2023-02-18T19:50:06.239Z,1.42
2023-02-18T19:52:33.585Z,1.40
2023-02-18T19:55:00.462Z,1.27
2023-02-18T19:57:27.216Z,1.38
2023-02-18T19:59:53.886Z,1.45
2023-02-18T20:02:24.062Z,1.27
2023-02-18T20:04:51.484Z,1.30
2023-02-18T20:07:20.291Z,1.73
2023-02-18T20:09:47.299Z,1.50
2023-02-18T20:12:14.161Z,1.80
2023-02-18T20:14:43.085Z,1.77
2023-02-18T20:17:11.017Z,1.60
2023-02-18T20:19:37.969Z,1.83
2023-02-18T20:22:06.802Z,2.40
2023-02-18T20:24:34.347Z,2.10
2023-02-18T20:27:02.687Z,2.30
2023-02-18T20:29:30.826Z,2.40
2023-02-18T20:31:57.478Z,2.85
2023-02-18T20:34:24.130Z,2.50
2023-02-18T20:36:51.342Z,2.58
2023-02-18T20:39:20.144Z,2.80
2023-02-18T20:41:49.075Z,3.13
2023-02-18T20:44:17.196Z,2.85
2023-02-18T20:46:44.581Z,3.28
2023-02-18T20:49:17.180Z,3.60
2023-02-18T20:51:44.056Z,3.10
2023-02-18T20:54:15.746Z,3.10
2023-02-18T20:56:44.061Z,2.97
2023-02-18T20:59:15.521Z,3.45
2023-02-18T21:01:43.507Z,3.63
2023-02-18T21:04:15.748Z,3.60
2023-02-18T21:06:42.720Z,3.45
2023-02-18T21:09:09.430Z,3.33
2023-02-18T21:11:36.184Z,3.53
2023-02-18T21:14:04.765Z,4.00
2023-02-18T21:16:38.696Z,3.70
2023-02-18T21:19:12.773Z,3.80
2023-02-18T21:21:39.462Z,3.83
2023-02-18T21:24:06.384Z,4.00
2023-02-18T21:26:33.410Z,4.55
2023-02-18T21:29:02.308Z,4.30
2023-02-18T21:31:35.080Z,4.57
2023-02-18T21:34:02.532Z,3.78
2023-02-18T21:36:31.075Z,3.88
2023-02-18T21:39:00.359Z,3.87
2023-02-18T21:41:28.695Z,3.55
2023-02-18T21:43:55.844Z,3.90
2023-02-18T21:46:25.718Z,3.60
2023-02-18T21:49:10.854Z,2.97
2023-02-18T21:52:00.701Z,3.65
2023-02-18T21:54:37.056Z,3.10
2023-02-18T21:57:05.461Z,2.72
2023-02-18T21:59:33.828Z,2.10
2023-02-18T22:02:01.283Z,1.88
2023-02-18T22:04:30.765Z,1.80
2023-02-18T22:09:25.663Z,1.40
2023-02-18T22:11:52.366Z,1.40
2023-02-18T22:14:19.424Z,1.90
2023-02-18T22:16:46.128Z,1.85
2023-02-18T22:19:14.206Z,1.60
2023-02-18T22:21:43.862Z,1.60
2023-02-18T22:24:13.829Z,1.50
2023-02-18T22:26:41.315Z,1.50
2023-02-18T22:29:08.025Z,1.60
2023-02-18T22:31:34.759Z,1.70
2023-02-18T22:34:01.466Z,1.52
2023-02-18T22:36:29.375Z,1.60
2023-02-18T22:38:56.215Z,1.60
2023-02-18T22:41:24.504Z,1.70
2023-02-18T22:43:59.613Z,1.50
2023-02-18T22:46:27.213Z,1.10
2023-02-18T22:48:56.558Z,1.30
2023-02-18T22:51:26.264Z,1.30
2023-02-18T22:53:55.079Z,1.08
2023-02-18T22:56:23.299Z,1.20
2023-02-18T22:58:51.505Z,0.80
2023-02-18T23:01:29.589Z,1.02
2023-02-18T23:03:58.597Z,0.90
2023-02-18T23:06:25.740Z,1.00
2023-02-18T23:08:54.292Z,1.10
2023-02-18T23:11:21.671Z,1.17
2023-02-18T23:14:08.689Z,1.20
2023-02-18T23:16:57.219Z,1.33
2023-02-18T23:19:25.410Z,1.23
2023-02-18T23:21:52.035Z,1.30
2023-02-18T23:24:19.002Z,1.73
2023-02-18T23:26:46.215Z,1.73
2023-02-18T23:29:12.958Z,1.73
2023-02-18T23:31:39.897Z,1.73
2023-02-18T23:34:08.209Z,1.70
2023-02-18T23:36:39.061Z,2.00
2023-02-18T23:39:10.504Z,1.92
2023-02-18T23:41:37.657Z,2.00
2023-02-18T23:44:06.146Z,2.10
2023-02-18T23:46:33.886Z,2.28
2023-02-18T23:49:01.091Z,2.38
2023-02-18T23:51:27.872Z,1.90
2023-02-18T23:53:54.480Z,2.10
2023-02-18T23:56:24.290Z,2.00
2023-02-18T23:58:57.446Z,2.22
